Time;durP1;ratioP1;P1;durP2;ratioP2;P2;SDS_P1;SDS_P2;PMS_P1;PMS_P2;Temp;Humidity;BMP_temperature;BMP_pressure;BME280_temperature;BME280_humidity;BME280_pressure;Samples;Min_cycle;Max_cycle;Signal;HPM_P1;HPM_P2
2023/06/02 00:00:01;;;;;;;4.75;2.65;;;;;;;;;;5071086;28;20727;-51
2023/06/02 00:02:29;;;;;;;5.40;2.50;;;;;;;;;;5078944;28;20259;-53
2023/06/02 00:04:57;;;;;;;12.13;3.10;;;;;;;;;;5068080;28;20792;-51
2023/06/02 00:07:25;;;;;;;5.18;2.67;;;;;;;;;;5077780;28;20234;-52
2023/06/02 00:09:52;;;;;;;7.18;2.97;;;;;;;;;;5078935;28;20332;-51
2023/06/02 00:12:19;;;;;;;9.55;3.40;;;;;;;;;;5074606;28;20271;-52
2023/06/02 00:14:48;;;;;;;5.18;2.38;;;;;;;;;;5081178;28;20302;-55
2023/06/02 00:17:18;;;;;;;6.85;3.33;;;;;;;;;;5083296;28;20377;-51
2023/06/02 00:19:47;;;;;;;10.40;3.25;;;;;;;;;;5079939;28;20767;-50
2023/06/02 00:22:15;;;;;;;5.65;2.97;;;;;;;;;;5074173;28;20238;-53
2023/06/02 00:24:42;;;;;;;10.30;2.75;;;;;;;;;;5082052;28;20252;-53
2023/06/02 00:27:10;;;;;;;6.43;2.67;;;;;;;;;;5079461;28;20306;-52
2023/06/02 00:29:36;;;;;;;10.13;3.67;;;;;;;;;;5079558;28;20752;-52
2023/06/02 00:32:04;;;;;;;8.65;3.33;;;;;;;;;;5076291;28;20280;-53
2023/06/02 00:34:32;;;;;;;6.88;2.50;;;;;;;;;;5074494;28;20581;-52
2023/06/02 00:36:59;;;;;;;4.05;2.30;;;;;;;;;;5081864;28;20234;-53
2023/06/02 00:39:25;;;;;;;7.45;3.25;;;;;;;;;;5080344;28;20930;-52
2023/06/02 00:41:52;;;;;;;12.48;3.65;;;;;;;;;;5079674;28;20659;-53
2023/06/02 00:44:20;;;;;;;15.65;3.92;;;;;;;;;;5081361;27;20604;-52
2023/06/02 00:46:46;;;;;;;7.35;2.92;;;;;;;;;;5085575;28;20222;-54
2023/06/02 00:49:13;;;;;;;10.80;2.92;;;;;;;;;;5080173;28;20681;-51
2023/06/02 00:51:42;;;;;;;7.20;2.95;;;;;;;;;;5078786;28;20765;-51
2023/06/02 00:54:09;;;;;;;9.38;3.10;;;;;;;;;;5077920;27;20262;-52
2023/06/02 00:56:36;;;;;;;9.60;3.65;;;;;;;;;;5084513;28;20268;-51
2023/06/02 00:59:03;;;;;;;4.22;2.65;;;;;;;;;;5080701;28;20250;-53
2023/06/02 01:01:30;;;;;;;9.18;3.78;;;;;;;;;;5077516;28;20246;-50
2023/06/02 01:03:57;;;;;;;11.55;3.70;;;;;;;;;;5084315;28;20227;-53
2023/06/02 01:06:31;;;;;;;7.55;4.00;;;;;;;;;;5082763;28;20310;-52
2023/06/02 01:08:59;;;;;;;6.32;3.03;;;;;;;;;;5081291;28;20226;-51
2023/06/02 01:11:26;;;;;;;8.85;3.35;;;;;;;;;;5082490;28;20313;-52
2023/06/02 01:13:54;;;;;;;7.35;3.35;;;;;;;;;;5078292;27;20230;-51
2023/06/02 01:16:21;;;;;;;8.07;3.25;;;;;;;;;;5071004;28;20247;-52
2023/06/02 01:18:49;;;;;;;8.88;3.50;;;;;;;;;;5084216;28;20780;-54
2023/06/02 01:21:21;;;;;;;7.22;3.40;;;;;;;;;;5085148;28;20234;-51
2023/06/02 01:23:51;;;;;;;14.32;3.53;;;;;;;;;;5081940;28;20234;-57
2023/06/02 01:26:18;;;;;;;7.45;3.22;;;;;;;;;;5080696;28;20223;-53
2023/06/02 01:28:45;;;;;;;5.97;2.67;;;;;;;;;;5083714;28;20254;-51
2023/06/02 01:31:15;;;;;;;10.07;4.35;;;;;;;;;;5082198;28;20227;-51
2023/06/02 01:33:45;;;;;;;12.45;3.30;;;;;;;;;;5084551;28;20231;-57
2023/06/02 01:36:11;;;;;;;4.60;2.63;;;;;;;;;;5083572;28;20738;-51
2023/06/02 01:38:39;;;;;;;6.80;3.25;;;;;;;;;;5081050;28;20245;-53
2023/06/02 01:41:07;;;;;;;10.35;3.35;;;;;;;;;;5084296;28;20846;-51
2023/06/02 01:43:35;;;;;;;9.85;3.28;;;;;;;;;;5081463;28;20230;-50
2023/06/02 01:46:02;;;;;;;6.38;3.38;;;;;;;;;;5080800;28;20237;-51
2023/06/02 01:48:29;;;;;;;11.73;3.65;;;;;;;;;;5075963;28;20227;-52
2023/06/02 01:50:55;;;;;;;10.32;3.22;;;;;;;;;;5080668;28;20308;-53
2023/06/02 01:53:26;;;;;;;12.13;4.03;;;;;;;;;;5080988;28;20234;-53
2023/06/02 01:55:53;;;;;;;8.60;3.53;;;;;;;;;;5084500;28;20837;-52
2023/06/02 01:58:21;;;;;;;9.52;3.55;;;;;;;;;;5078288;28;20235;-52
2023/06/02 02:00:47;;;;;;;10.80;3.60;;;;;;;;;;5082803;28;20646;-52
2023/06/02 02:03:14;;;;;;;7.38;3.08;;;;;;;;;;5083248;27;20222;-52
2023/06/02 02:05:41;;;;;;;9.80;2.60;;;;;;;;;;5083224;28;20230;-51
2023/06/02 02:08:07;;;;;;;9.35;3.33;;;;;;;;;;5082475;28;20310;-51
2023/06/02 02:10:34;;;;;;;8.40;3.38;;;;;;;;;;5080463;28;20277;-53
2023/06/02 02:13:01;;;;;;;8.07;3.25;;;;;;;;;;5080432;28;20612;-52
2023/06/02 02:15:29;;;;;;;6.65;3.65;;;;;;;;;;5083738;28;20249;-53
2023/06/02 02:17:56;;;;;;;10.60;3.20;;;;;;;;;;5082200;28;20235;-52
2023/06/02 02:20:23;;;;;;;5.85;2.85;;;;;;;;;;5080034;28;20321;-53
2023/06/02 02:22:50;;;;;;;11.90;3.78;;;;;;;;;;5078078;27;20742;-52
2023/06/02 02:25:17;;;;;;;9.23;2.97;;;;;;;;;;5081656;28;20277;-52
2023/06/02 02:27:43;;;;;;;6.68;3.45;;;;;;;;;;5081790;28;20249;-51
2023/06/02 02:30:10;;;;;;;5.85;3.05;;;;;;;;;;5081557;28;20238;-51
2023/06/02 02:32:39;;;;;;;8.68;4.18;;;;;;;;;;5080455;27;20297;-51
2023/06/02 02:35:06;;;;;;;5.72;3.20;;;;;;;;;;5077801;28;20230;-53
2023/06/02 02:37:33;;;;;;;4.53;2.92;;;;;;;;;;5078815;28;20240;-51
2023/06/02 02:40:00;;;;;;;11.90;4.15;;;;;;;;;;5080173;28;20230;-50
2023/06/02 02:42:27;;;;;;;9.48;3.13;;;;;;;;;;5080921;28;20311;-51
2023/06/02 02:44:53;;;;;;;12.73;4.25;;;;;;;;;;5081100;28;20700;-50
2023/06/02 02:47:20;;;;;;;11.23;3.53;;;;;;;;;;5078650;28;21068;-52
2023/06/02 02:49:48;;;;;;;12.85;4.07;;;;;;;;;;5079674;28;21369;-51
2023/06/02 02:52:14;;;;;;;14.57;3.85;;;;;;;;;;5081311;28;20322;-52
2023/06/02 02:54:41;;;;;;;11.35;4.30;;;;;;;;;;5078544;27;20235;-52
2023/06/02 02:57:08;;;;;;;12.43;3.35;;;;;;;;;;5083580;28;20245;-53
2023/06/02 02:59:35;;;;;;;8.95;3.88;;;;;;;;;;5084063;28;20245;-53
2023/06/02 03:02:02;;;;;;;13.10;3.47;;;;;;;;;;5079660;28;20227;-54
2023/06/02 03:04:29;;;;;;;10.48;3.30;;;;;;;;;;5081893;28;20226;-51
2023/06/02 03:06:57;;;;;;;9.15;3.72;;;;;;;;;;5081925;28;20245;-51
2023/06/02 03:09:24;;;;;;;9.80;3.88;;;;;;;;;;5073054;28;20302;-54
2023/06/02 03:11:50;;;;;;;8.18;3.20;;;;;;;;;;5081294;28;20338;-51
2023/06/02 03:14:17;;;;;;;8.02;3.88;;;;;;;;;;5081655;28;20230;-52
2023/06/02 03:16:44;;;;;;;16.08;3.33;;;;;;;;;;5081089;28;20231;-52
2023/06/02 03:19:12;;;;;;;7.60;3.40;;;;;;;;;;5081077;28;20724;-52
2023/06/02 03:21:43;;;;;;;9.82;3.28;;;;;;;;;;5078376;28;20241;-52
2023/06/02 03:24:12;;;;;;;10.98;3.85;;;;;;;;;;5080656;28;20855;-52
2023/06/02 03:26:45;;;;;;;8.27;3.28;;;;;;;;;;5080616;28;20319;-53
2023/06/02 03:29:12;;;;;;;13.48;4.72;;;;;;;;;;5076797;28;20267;-53
2023/06/02 03:31:40;;;;;;;9.88;3.47;;;;;;;;;;5077643;28;20256;-52
2023/06/02 03:34:07;;;;;;;7.20;3.42;;;;;;;;;;5082464;28;20331;-51
2023/06/02 03:36:35;;;;;;;13.95;3.60;;;;;;;;;;5082626;28;20668;-52
2023/06/02 03:39:03;;;;;;;9.77;3.33;;;;;;;;;;5080519;28;20230;-51
2023/06/02 03:41:31;;;;;;;7.68;4.00;;;;;;;;;;5079763;28;20235;-51
2023/06/02 03:43:58;;;;;;;10.82;4.03;;;;;;;;;;5079710;28;20231;-53
2023/06/02 03:46:25;;;;;;;6.93;3.93;;;;;;;;;;5080603;28;20272;-51
2023/06/02 03:48:51;;;;;;;14.70;4.35;;;;;;;;;;5084721;28;20230;-50
2023/06/02 03:51:18;;;;;;;5.68;3.58;;;;;;;;;;5079066;28;20224;-55
2023/06/02 03:53:45;;;;;;;7.43;3.63;;;;;;;;;;5082132;28;20234;-51
2023/06/02 03:56:12;;;;;;;9.48;3.25;;;;;;;;;;5076567;28;20260;-51
2023/06/02 03:58:40;;;;;;;5.40;3.10;;;;;;;;;;5074912;28;20242;-53
2023/06/02 04:01:06;;;;;;;13.57;4.05;;;;;;;;;;5082368;28;20222;-52
2023/06/02 04:03:36;;;;;;;7.25;3.03;;;;;;;;;;5071881;28;20296;-51
2023/06/02 04:06:03;;;;;;;12.27;4.05;;;;;;;;;;5081025;28;20234;-52
2023/06/02 04:08:30;;;;;;;11.13;4.53;;;;;;;;;;5079405;28;20318;-53
2023/06/02 04:10:57;;;;;;;13.25;3.63;;;;;;;;;;5080419;28;20604;-52
2023/06/02 04:13:23;;;;;;;11.57;3.97;;;;;;;;;;5085776;28;20231;-51
2023/06/02 04:15:51;;;;;;;10.00;4.15;;;;;;;;;;5090373;28;20230;-53
2023/06/02 04:18:18;;;;;;;9.32;3.60;;;;;;;;;;5081339;28;20266;-52
2023/06/02 04:20:45;;;;;;;13.75;4.53;;;;;;;;;;5080564;28;20233;-52
2023/06/02 04:23:11;;;;;;;10.65;4.05;;;;;;;;;;5083357;28;20325;-54
2023/06/02 04:25:38;;;;;;;11.45;4.90;;;;;;;;;;5077155;28;20254;-50
2023/06/02 04:28:05;;;;;;;10.95;3.10;;;;;;;;;;5079737;28;20233;-51
2023/06/02 04:30:32;;;;;;;7.80;3.00;;;;;;;;;;5081213;28;20238;-51
2023/06/02 04:33:00;;;;;;;10.32;5.20;;;;;;;;;;5084660;28;20670;-51
2023/06/02 04:35:27;;;;;;;11.95;4.22;;;;;;;;;;5081619;28;20693;-51
2023/06/02 04:37:53;;;;;;;7.47;3.25;;;;;;;;;;5076267;28;20226;-54
2023/06/02 04:40:20;;;;;;;9.60;3.92;;;;;;;;;;5083643;28;20237;-51
2023/06/02 04:42:47;;;;;;;11.40;3.85;;;;;;;;;;5080791;28;20274;-51
2023/06/02 04:45:15;;;;;;;9.75;3.42;;;;;;;;;;5082533;28;20218;-54
2023/06/02 04:47:42;;;;;;;9.55;3.45;;;;;;;;;;5078828;28;20234;-52
2023/06/02 04:50:13;;;;;;;10.35;4.57;;;;;;;;;;5081893;28;20245;-53
2023/06/02 04:52:40;;;;;;;12.95;3.80;;;;;;;;;;5080516;28;20238;-52
2023/06/02 04:55:08;;;;;;;5.95;3.65;;;;;;;;;;5084613;28;20226;-51
2023/06/02 04:57:35;;;;;;;13.93;3.47;;;;;;;;;;5082752;28;20700;-52
2023/06/02 05:00:03;;;;;;;14.98;4.07;;;;;;;;;;5079440;28;20692;-51
2023/06/02 05:02:30;;;;;;;8.38;3.83;;;;;;;;;;5075806;28;20242;-53
2023/06/02 05:04:56;;;;;;;9.80;3.70;;;;;;;;;;5082202;28;20687;-52
2023/06/02 05:07:24;;;;;;;12.45;4.07;;;;;;;;;;5079288;28;20256;-51
2023/06/02 05:09:52;;;;;;;8.68;3.83;;;;;;;;;;5075209;28;20239;-57
2023/06/02 05:12:19;;;;;;;8.35;3.70;;;;;;;;;;5073880;27;20416;-54
2023/06/02 05:14:46;;;;;;;6.63;3.78;;;;;;;;;;5099314;27;20286;-51
2023/06/02 05:17:13;;;;;;;10.13;4.38;;;;;;;;;;5070536;28;20226;-51
2023/06/02 05:19:41;;;;;;;14.07;4.75;;;;;;;;;;5092406;28;20288;-51
2023/06/02 05:22:07;;;;;;;10.48;3.38;;;;;;;;;;5078025;28;20231;-51
2023/06/02 05:24:35;;;;;;;13.27;4.22;;;;;;;;;;5079965;28;20234;-50
2023/06/02 05:27:02;;;;;;;7.80;4.32;;;;;;;;;;5078214;28;20600;-56
2023/06/02 05:29:28;;;;;;;11.30;4.68;;;;;;;;;;5078917;28;20234;-52
2023/06/02 05:31:56;;;;;;;15.13;3.67;;;;;;;;;;5083192;28;20605;-57
2023/06/02 05:34:23;;;;;;;10.82;3.88;;;;;;;;;;5080972;28;20276;-51
2023/06/02 05:36:50;;;;;;;8.85;4.00;;;;;;;;;;5080491;28;20707;-52
2023/06/02 05:39:16;;;;;;;9.45;3.97;;;;;;;;;;5083023;28;20234;-52
2023/06/02 05:41:45;;;;;;;16.08;3.97;;;;;;;;;;5075630;28;20226;-52
2023/06/02 05:44:12;;;;;;;10.55;4.32;;;;;;;;;;5081895;28;20249;-52
2023/06/02 05:46:39;;;;;;;5.75;3.33;;;;;;;;;;5096317;27;20268;-53
2023/06/02 05:49:05;;;;;;;9.95;3.33;;;;;;;;;;5080897;28;20249;-53
2023/06/02 05:51:32;;;;;;;10.93;3.67;;;;;;;;;;5078102;28;20265;-52
2023/06/02 05:54:00;;;;;;;16.75;4.32;;;;;;;;;;5080460;27;20990;-51
2023/06/02 05:56:26;;;;;;;6.72;3.03;;;;;;;;;;5080253;28;20321;-51
2023/06/02 05:58:55;;;;;;;14.13;5.03;;;;;;;;;;5075012;28;20235;-52
2023/06/02 06:01:21;;;;;;;6.95;4.18;;;;;;;;;;5077214;28;20229;-53
2023/06/02 06:03:48;;;;;;;8.60;3.80;;;;;;;;;;5078979;28;20326;-51
2023/06/02 06:06:14;;;;;;;9.40;3.25;;;;;;;;;;5078617;28;20377;-53
2023/06/02 06:08:41;;;;;;;13.52;4.85;;;;;;;;;;5080573;28;20230;-53
2023/06/02 06:11:08;;;;;;;11.25;3.65;;;;;;;;;;5079634;28;20311;-53
2023/06/02 06:13:35;;;;;;;6.30;3.40;;;;;;;;;;5082349;27;20429;-52
2023/06/02 06:16:04;;;;;;;12.20;4.63;;;;;;;;;;5082707;28;20272;-52
2023/06/02 06:18:30;;;;;;;5.88;4.63;;;;;;;;;;5076850;28;20428;-53
2023/06/02 06:20:57;;;;;;;8.35;3.60;;;;;;;;;;5083817;28;20696;-52
2023/06/02 06:23:25;;;;;;;13.68;5.05;;;;;;;;;;5082873;28;20231;-52
2023/06/02 06:25:51;;;;;;;13.55;3.88;;;;;;;;;;5077639;28;20218;-52
2023/06/02 06:28:18;;;;;;;12.32;3.22;;;;;;;;;;5070718;28;20227;-53
2023/06/02 06:30:45;;;;;;;13.00;4.45;;;;;;;;;;5075846;28;20842;-52
2023/06/02 06:33:13;;;;;;;15.07;4.80;;;;;;;;;;5068249;28;20280;-52
2023/06/02 06:35:40;;;;;;;6.32;3.25;;;;;;;;;;5076845;28;20756;-53
2023/06/02 06:38:06;;;;;;;10.80;3.97;;;;;;;;;;5080523;28;20752;-53
2023/06/02 06:40:33;;;;;;;7.90;4.05;;;;;;;;;;5072529;28;20234;-51
2023/06/02 06:42:59;;;;;;;15.80;4.82;;;;;;;;;;5078857;28;20245;-52
2023/06/02 06:45:26;;;;;;;11.85;4.55;;;;;;;;;;5076641;28;20910;-51
2023/06/02 06:47:53;;;;;;;8.77;3.72;;;;;;;;;;5080861;28;20245;-53
2023/06/02 06:50:21;;;;;;;8.95;3.85;;;;;;;;;;5078125;28;20246;-53
2023/06/02 06:52:48;;;;;;;13.98;4.38;;;;;;;;;;5081059;28;20291;-53
2023/06/02 06:55:15;;;;;;;8.80;4.20;;;;;;;;;;5080076;27;20961;-50
2023/06/02 06:57:42;;;;;;;10.40;4.95;;;;;;;;;;5082373;28;20977;-53
2023/06/02 07:00:09;;;;;;;10.52;4.43;;;;;;;;;;5077725;28;20775;-52
2023/06/02 07:02:36;;;;;;;8.52;4.63;;;;;;;;;;5076481;28;20785;-51
2023/06/02 07:05:03;;;;;;;9.68;4.97;;;;;;;;;;5081338;28;20254;-52
2023/06/02 07:07:32;;;;;;;10.15;4.82;;;;;;;;;;5077644;28;20289;-51
2023/06/02 07:09:58;;;;;;;14.30;5.15;;;;;;;;;;5081309;28;20242;-52
2023/06/02 07:12:25;;;;;;;8.85;4.55;;;;;;;;;;5073852;28;20231;-53
2023/06/02 07:14:52;;;;;;;15.27;5.55;;;;;;;;;;5072614;28;20231;-52
2023/06/02 07:17:19;;;;;;;13.10;4.40;;;;;;;;;;5082615;27;20299;-52
2023/06/02 07:19:46;;;;;;;11.55;5.13;;;;;;;;;;5091414;27;20239;-52
2023/06/02 07:22:13;;;;;;;12.18;5.30;;;;;;;;;;5076482;28;20849;-53
2023/06/02 07:24:43;;;;;;;14.68;3.85;;;;;;;;;;5079181;28;20234;-52
2023/06/02 07:27:10;;;;;;;15.32;5.00;;;;;;;;;;5077913;28;20242;-52
2023/06/02 07:29:36;;;;;;;7.00;4.70;;;;;;;;;;5077657;28;20235;-54
2023/06/02 07:32:03;;;;;;;11.65;3.70;;;;;;;;;;5068592;28;20709;-53
2023/06/02 07:34:29;;;;;;;12.55;5.05;;;;;;;;;;5077337;28;20227;-51
2023/06/02 07:36:56;;;;;;;7.97;3.70;;;;;;;;;;5081362;28;20238;-53
2023/06/02 07:39:23;;;;;;;8.07;4.65;;;;;;;;;;5081418;28;20227;-52
2023/06/02 07:41:51;;;;;;;7.38;4.47;;;;;;;;;;5075276;28;20761;-52
2023/06/02 07:44:18;;;;;;;17.40;6.35;;;;;;;;;;5076859;28;20222;-52
2023/06/02 07:46:45;;;;;;;9.38;4.78;;;;;;;;;;5080098;28;20343;-51
2023/06/02 07:49:12;;;;;;;10.35;5.88;;;;;;;;;;5078318;28;20274;-54
2023/06/02 07:51:39;;;;;;;8.93;4.78;;;;;;;;;;5075647;28;20735;-52
2023/06/02 07:54:05;;;;;;;11.80;4.65;;;;;;;;;;5081057;27;20223;-51
2023/06/02 07:56:32;;;;;;;10.23;4.70;;;;;;;;;;5075046;28;20350;-53
2023/06/02 07:59:00;;;;;;;6.47;4.43;;;;;;;;;;5072867;28;20238;-52
2023/06/02 08:01:27;;;;;;;6.97;4.65;;;;;;;;;;5073772;28;20254;-52
2023/06/02 08:03:53;;;;;;;3.90;3.15;;;;;;;;;;5081802;28;20924;-52
2023/06/02 08:06:20;;;;;;;5.93;4.05;;;;;;;;;;5076360;28;20230;-55
2023/06/02 08:08:47;;;;;;;13.93;5.20;;;;;;;;;;5072500;28;20241;-52
2023/06/02 08:11:13;;;;;;;11.43;5.00;;;;;;;;;;5076492;28;20231;-51
2023/06/02 08:13:40;;;;;;;6.18;4.05;;;;;;;;;;5072902;28;20252;-53
2023/06/02 08:16:08;;;;;;;4.85;3.50;;;;;;;;;;5078190;28;20226;-53
2023/06/02 08:18:34;;;;;;;9.48;4.75;;;;;;;;;;5080003;28;20810;-53
2023/06/02 08:21:02;;;;;;;5.07;3.67;;;;;;;;;;5070777;28;20242;-52
2023/06/02 08:23:29;;;;;;;6.95;4.18;;;;;;;;;;5071422;28;20231;-52
2023/06/02 08:25:58;;;;;;;11.10;4.65;;;;;;;;;;5084560;28;20282;-54
2023/06/02 08:28:25;;;;;;;5.80;3.50;;;;;;;;;;5084911;28;20681;-51
2023/06/02 08:30:52;;;;;;;7.30;3.75;;;;;;;;;;5083521;28;20223;-52
2023/06/02 08:33:21;;;;;;;7.07;2.95;;;;;;;;;;5081707;28;20245;-51
2023/06/02 08:35:51;;;;;;;6.95;3.78;;;;;;;;;;5078739;28;20772;-52
2023/06/02 08:38:17;;;;;;;5.97;3.80;;;;;;;;;;5085484;28;20671;-51
2023/06/02 08:40:46;;;;;;;6.30;3.47;;;;;;;;;;5083498;28;20230;-52
2023/06/02 08:43:13;;;;;;;3.10;2.80;;;;;;;;;;5080097;28;20287;-51
2023/06/02 08:45:40;;;;;;;5.30;3.50;;;;;;;;;;5084223;28;20455;-52
2023/06/02 08:48:07;;;;;;;4.85;3.17;;;;;;;;;;5069523;28;20292;-51
2023/06/02 08:50:37;;;;;;;5.95;3.38;;;;;;;;;;5078337;28;20227;-53
2023/06/02 08:53:04;;;;;;;4.43;2.92;;;;;;;;;;5080311;28;20231;-52
2023/06/02 08:55:32;;;;;;;5.95;3.05;;;;;;;;;;5083463;28;20696;-51
2023/06/02 08:57:58;;;;;;;4.10;2.67;;;;;;;;;;5084940;28;20246;-52
2023/06/02 09:00:25;;;;;;;5.50;2.13;;;;;;;;;;5082689;28;20237;-52
2023/06/02 09:02:52;;;;;;;3.28;2.42;;;;;;;;;;5085513;28;20258;-52
2023/06/02 09:05:19;;;;;;;4.38;2.72;;;;;;;;;;5084061;28;20233;-51
2023/06/02 09:07:47;;;;;;;4.13;2.53;;;;;;;;;;5084054;28;20250;-53
2023/06/02 09:10:28;;;;;;;3.17;2.40;;;;;;;;;;5084820;28;20249;-52
2023/06/02 09:12:54;;;;;;;2.25;1.88;;;;;;;;;;5082163;28;20955;-52
2023/06/02 09:15:21;;;;;;;2.25;2.05;;;;;;;;;;5082496;28;20239;-52
2023/06/02 09:17:47;;;;;;;5.65;2.03;;;;;;;;;;5085399;28;20723;-54
2023/06/02 09:20:14;;;;;;;2.50;2.03;;;;;;;;;;5082381;28;20598;-51
2023/06/02 09:22:55;;;;;;;4.20;1.67;;;;;;;;;;5075770;28;21588;-52
2023/06/02 09:25:22;;;;;;;3.42;2.00;;;;;;;;;;5078595;28;21086;-53
2023/06/02 09:27:52;;;;;;;8.23;1.98;;;;;;;;;;5087113;28;20235;-51
2023/06/02 09:30:18;;;;;;;5.70;1.80;;;;;;;;;;5079466;28;20227;-52
2023/06/02 09:32:51;;;;;;;3.47;1.63;;;;;;;;;;5083389;28;20242;-51
2023/06/02 09:35:32;;;;;;;1.45;1.17;;;;;;;;;;5079985;28;20966;-51
2023/06/02 09:38:00;;;;;;;1.13;1.02;;;;;;;;;;5076217;28;20681;-51
2023/06/02 09:40:27;;;;;;;1.85;1.40;;;;;;;;;;5081048;28;22006;-53
2023/06/02 09:42:53;;;;;;;2.35;1.23;;;;;;;;;;5076001;28;20235;-51
2023/06/02 09:45:19;;;;;;;1.80;1.48;;;;;;;;;;5078094;28;20317;-52
2023/06/02 09:47:48;;;;;;;3.25;2.03;;;;;;;;;;5084269;28;20700;-53
2023/06/02 09:50:30;;;;;;;4.60;2.38;;;;;;;;;;5083658;28;20230;-52
2023/06/02 09:53:04;;;;;;;3.90;1.50;;;;;;;;;;5083062;28;20230;-52
2023/06/02 09:55:32;;;;;;;5.85;1.52;;;;;;;;;;5090988;28;20237;-59
2023/06/02 09:57:59;;;;;;;3.63;1.85;;;;;;;;;;5083579;28;20617;-50
2023/06/02 10:00:26;;;;;;;5.78;2.35;;;;;;;;;;5079756;28;20238;-53
2023/06/02 10:02:52;;;;;;;2.05;1.38;;;;;;;;;;5083244;28;20226;-52
2023/06/02 10:05:21;;;;;;;3.15;2.08;;;;;;;;;;5084193;28;20317;-53
2023/06/02 10:07:53;;;;;;;1.88;1.63;;;;;;;;;;5080968;28;20231;-52
2023/06/02 10:10:26;;;;;;;4.22;1.67;;;;;;;;;;5081225;28;20662;-51
2023/06/02 10:13:01;;;;;;;1.33;1.05;;;;;;;;;;5080938;28;20222;-52
2023/06/02 10:15:54;;;;;;;7.78;2.05;;;;;;;;;;5081646;28;20230;-52
2023/06/02 10:18:30;;;;;;;6.32;1.95;;;;;;;;;;5047426;28;20272;-52
2023/06/02 10:21:01;;;;;;;2.60;1.50;;;;;;;;;;5083040;28;20317;-51
2023/06/02 10:23:35;;;;;;;2.45;1.17;;;;;;;;;;5079117;28;20234;-51
2023/06/02 10:26:11;;;;;;;2.10;1.27;;;;;;;;;;5081727;28;20731;-51
2023/06/02 10:28:38;;;;;;;1.70;1.25;;;;;;;;;;5084882;28;20687;-51
2023/06/02 10:31:08;;;;;;;2.83;1.30;;;;;;;;;;5081329;28;20222;-50
2023/06/02 10:33:41;;;;;;;2.33;1.55;;;;;;;;;;5083343;28;20319;-52
2023/06/02 10:36:08;;;;;;;1.27;1.00;;;;;;;;;;5079858;28;20241;-52
2023/06/02 10:38:34;;;;;;;1.10;1.00;;;;;;;;;;5078378;28;20234;-51
2023/06/02 10:41:01;;;;;;;2.63;1.15;;;;;;;;;;5077439;28;20309;-52
2023/06/02 10:43:29;;;;;;;2.75;1.10;;;;;;;;;;5079082;28;20234;-52
2023/06/02 10:46:15;;;;;;;2.10;1.30;;;;;;;;;;5076307;28;20314;-52
2023/06/02 10:48:42;;;;;;;1.98;1.10;;;;;;;;;;5080922;28;20264;-50
2023/06/02 10:51:09;;;;;;;2.60;1.65;;;;;;;;;;5079755;28;20229;-51
2023/06/02 10:53:56;;;;;;;1.58;1.45;;;;;;;;;;5070887;28;20231;-52
2023/06/02 10:56:39;;;;;;;2.38;1.33;;;;;;;;;;5083227;28;20368;-51
2023/06/02 10:59:08;;;;;;;1.98;1.67;;;;;;;;;;5081515;28;20281;-49
2023/06/02 11:01:44;;;;;;;1.80;1.40;;;;;;;;;;5079126;28;20239;-57
2023/06/02 11:04:29;;;;;;;1.65;1.30;;;;;;;;;;5082951;28;20340;-57
2023/06/02 11:07:15;;;;;;;2.40;1.40;;;;;;;;;;5085645;28;20223;-53
2023/06/02 11:09:43;;;;;;;3.13;1.10;;;;;;;;;;5082801;28;21875;-52
2023/06/02 11:12:09;;;;;;;5.20;1.58;;;;;;;;;;5076520;28;20238;-53
2023/06/02 11:14:51;;;;;;;2.95;1.33;;;;;;;;;;5078401;28;20242;-53
2023/06/02 11:17:35;;;;;;;9.65;1.55;;;;;;;;;;5073981;28;20231;-51
2023/06/02 11:20:04;;;;;;;10.55;4.85;;;;;;;;;;5087052;28;20837;-52
2023/06/02 11:22:32;;;;;;;5.43;2.13;;;;;;;;;;5079948;28;20258;-51
2023/06/02 11:24:59;;;;;;;4.20;1.35;;;;;;;;;;5084170;28;20230;-50
2023/06/02 11:27:35;;;;;;;4.78;1.33;;;;;;;;;;5083806;28;20241;-52
2023/06/02 11:30:05;;;;;;;3.22;1.17;;;;;;;;;;5081342;28;20279;-52
2023/06/02 11:32:31;;;;;;;4.72;1.48;;;;;;;;;;5079963;28;20888;-52
2023/06/02 11:35:00;;;;;;;3.38;1.50;;;;;;;;;;5082404;28;20232;-52
2023/06/02 11:37:28;;;;;;;1.73;1.30;;;;;;;;;;5083104;28;20235;-53
2023/06/02 11:39:55;;;;;;;4.28;1.63;;;;;;;;;;5078702;28;20237;-53
2023/06/02 11:42:21;;;;;;;2.33;1.25;;;;;;;;;;5075106;28;20249;-52
2023/06/02 11:44:48;;;;;;;2.97;1.63;;;;;;;;;;5077472;28;20270;-52
2023/06/02 11:47:17;;;;;;;1.40;1.20;;;;;;;;;;5076580;28;20239;-51
2023/06/02 11:49:44;;;;;;;2.25;1.40;;;;;;;;;;5074040;28;20231;-51
2023/06/02 11:52:10;;;;;;;3.00;1.75;;;;;;;;;;5074826;28;20237;-51
2023/06/02 11:54:50;;;;;;;2.00;1.48;;;;;;;;;;5081593;28;20250;-51
2023/06/02 11:57:25;;;;;;;1.90;1.65;;;;;;;;;;5074431;28;20324;-53
2023/06/02 12:00:04;;;;;;;1.83;1.30;;;;;;;;;;5079153;28;20329;-51
2023/06/02 12:02:31;;;;;;;1.65;1.38;;;;;;;;;;5069212;28;20711;-51
2023/06/02 12:04:57;;;;;;;6.90;2.65;;;;;;;;;;5069937;28;20914;-50
2023/06/02 12:07:27;;;;;;;6.35;1.60;;;;;;;;;;5069523;28;20236;-51
2023/06/02 12:09:55;;;;;;;2.80;1.67;;;;;;;;;;5081208;28;20235;-52
2023/06/02 12:12:21;;;;;;;2.53;0.95;;;;;;;;;;5066395;28;20242;-51
2023/06/02 12:14:48;;;;;;;2.60;1.20;;;;;;;;;;5080877;28;20935;-52
2023/06/02 12:17:14;;;;;;;3.75;2.28;;;;;;;;;;5071614;28;20250;-50
2023/06/02 12:19:41;;;;;;;6.47;3.15;;;;;;;;;;5068992;28;20240;-52
2023/06/02 12:22:10;;;;;;;4.07;2.10;;;;;;;;;;5066293;28;20697;-51
2023/06/02 12:24:38;;;;;;;2.83;0.80;;;;;;;;;;5070539;28;20265;-51
2023/06/02 12:27:07;;;;;;;3.80;1.23;;;;;;;;;;5078226;28;20230;-53
2023/06/02 12:29:33;;;;;;;2.45;1.00;;;;;;;;;;5067660;28;20246;-51
2023/06/02 12:32:01;;;;;;;3.70;1.83;;;;;;;;;;5068817;28;20245;-53
2023/06/02 12:34:27;;;;;;;5.75;1.83;;;;;;;;;;5085025;28;20248;-52
2023/06/02 12:36:54;;;;;;;2.47;0.75;;;;;;;;;;5085168;28;20240;-52
2023/06/02 12:39:21;;;;;;;2.10;1.08;;;;;;;;;;5084052;28;20238;-51
2023/06/02 12:41:47;;;;;;;1.35;1.17;;;;;;;;;;5075349;28;20237;-52
2023/06/02 12:44:15;;;;;;;1.63;1.00;;;;;;;;;;5072854;28;20245;-53
2023/06/02 12:46:42;;;;;;;1.05;0.93;;;;;;;;;;5078896;28;20238;-53
2023/06/02 12:49:10;;;;;;;4.40;1.27;;;;;;;;;;5079496;28;20245;-51
2023/06/02 12:51:36;;;;;;;2.15;0.98;;;;;;;;;;5066005;28;20223;-52
2023/06/02 12:54:03;;;;;;;1.17;0.88;;;;;;;;;;5075651;28;20346;-53
2023/06/02 12:56:29;;;;;;;1.30;1.02;;;;;;;;;;5075413;28;20234;-52
2023/06/02 12:58:56;;;;;;;2.17;1.38;;;;;;;;;;5076898;28;20318;-51
2023/06/02 13:01:23;;;;;;;1.38;1.02;;;;;;;;;;5078296;28;20244;-53
2023/06/02 13:03:52;;;;;;;2.95;1.27;;;;;;;;;;5083903;28;20241;-51
2023/06/02 13:06:19;;;;;;;1.52;1.10;;;;;;;;;;5083871;28;20242;-51
2023/06/02 13:08:45;;;;;;;2.25;1.23;;;;;;;;;;5074464;27;20254;-53
2023/06/02 13:11:12;;;;;;;2.33;1.33;;;;;;;;;;5083368;28;20783;-52
2023/06/02 13:13:39;;;;;;;1.00;1.00;;;;;;;;;;5080618;28;20325;-51
2023/06/02 13:16:06;;;;;;;2.95;1.70;;;;;;;;;;5081505;28;20240;-52
2023/06/02 13:18:34;;;;;;;1.45;1.35;;;;;;;;;;5081881;28;20321;-52
2023/06/02 13:21:01;;;;;;;1.77;1.25;;;;;;;;;;5078805;28;20242;-53
2023/06/02 13:23:27;;;;;;;3.38;1.10;;;;;;;;;;5083752;28;20735;-54
2023/06/02 13:25:53;;;;;;;3.38;1.38;;;;;;;;;;5078733;28;20230;-52
2023/06/02 13:28:20;;;;;;;2.30;1.50;;;;;;;;;;5080495;28;20313;-52
2023/06/02 13:30:46;;;;;;;1.08;0.80;;;;;;;;;;5081318;28;20245;-52
2023/06/02 13:33:13;;;;;;;2.22;1.40;;;;;;;;;;5074482;28;20233;-53
2023/06/02 13:35:40;;;;;;;4.38;1.38;;;;;;;;;;5068551;28;20747;-52
2023/06/02 13:38:07;;;;;;;5.13;1.40;;;;;;;;;;5081718;28;20226;-51
2023/06/02 13:40:33;;;;;;;0.88;0.70;;;;;;;;;;5084309;28;20248;-52
2023/06/02 13:42:59;;;;;;;2.13;1.20;;;;;;;;;;5081554;28;20237;-51
2023/06/02 13:45:26;;;;;;;2.45;1.17;;;;;;;;;;5072153;28;20330;-52
2023/06/02 13:47:52;;;;;;;1.67;0.98;;;;;;;;;;5078006;28;20237;-55
2023/06/02 13:50:18;;;;;;;4.07;0.80;;;;;;;;;;5079183;28;20240;-54
2023/06/02 13:52:46;;;;;;;1.40;0.70;;;;;;;;;;5077842;28;20258;-53
2023/06/02 13:55:13;;;;;;;1.65;1.20;;;;;;;;;;5087346;28;20313;-55
2023/06/02 13:57:39;;;;;;;3.60;1.17;;;;;;;;;;5084251;28;20252;-51
2023/06/02 14:00:07;;;;;;;1.27;0.70;;;;;;;;;;5074107;28;20223;-54
2023/06/02 14:02:33;;;;;;;2.97;1.42;;;;;;;;;;5075251;28;20246;-54
2023/06/02 14:04:59;;;;;;;3.05;1.00;;;;;;;;;;5075821;27;20254;-53
2023/06/02 14:07:26;;;;;;;4.00;1.48;;;;;;;;;;5077002;28;20234;-56
2023/06/02 14:09:54;;;;;;;2.22;1.05;;;;;;;;;;5078917;28;20747;-54
2023/06/02 14:12:20;;;;;;;15.30;1.73;;;;;;;;;;5086973;28;20309;-51
2023/06/02 14:14:46;;;;;;;1.58;0.90;;;;;;;;;;5077661;28;20255;-52
2023/06/02 14:17:13;;;;;;;1.10;1.00;;;;;;;;;;5081510;28;20231;-55
2023/06/02 14:19:40;;;;;;;2.72;0.85;;;;;;;;;;5080219;28;22265;-52
2023/06/02 14:22:06;;;;;;;2.83;1.10;;;;;;;;;;5076814;28;20321;-53
2023/06/02 14:24:32;;;;;;;0.98;0.82;;;;;;;;;;5079348;28;20234;-52
2023/06/02 14:27:00;;;;;;;1.38;0.60;;;;;;;;;;5079408;28;20227;-54
2023/06/02 14:29:27;;;;;;;1.73;1.02;;;;;;;;;;5067590;28;20612;-52
2023/06/02 14:31:53;;;;;;;0.50;0.40;;;;;;;;;;5084776;28;20230;-52
2023/06/02 14:34:20;;;;;;;0.65;0.50;;;;;;;;;;5084338;28;20218;-52
2023/06/02 14:36:46;;;;;;;5.20;0.90;;;;;;;;;;5080264;28;20229;-51
2023/06/02 14:39:13;;;;;;;0.40;0.40;;;;;;;;;;5079432;28;20258;-54
2023/06/02 14:41:39;;;;;;;1.42;0.75;;;;;;;;;;5080763;28;20238;-52
2023/06/02 14:44:07;;;;;;;1.92;0.80;;;;;;;;;;5064540;28;20249;-53